createdAt,value
2022-11-09T00:01:30.030Z,6.23
2022-11-09T00:04:00.082Z,6.23
2022-11-09T00:06:29.584Z,6.20
2022-11-09T00:09:01.316Z,6.18
2022-11-09T00:11:32.439Z,6.13
2022-11-09T00:14:00.820Z,6.10
2022-11-09T00:16:28.837Z,6.08
2022-11-09T00:19:01.057Z,6.08
2022-11-09T00:21:28.966Z,6.08
2022-11-09T00:23:57.366Z,6.06
2022-11-09T00:26:26.427Z,6.04
2022-11-09T00:28:54.463Z,6.01
2022-11-09T00:31:24.384Z,6.00
2022-11-09T00:33:55.574Z,5.99
2022-11-09T00:36:24.453Z,5.96
2022-11-09T00:38:58.636Z,5.94
2022-11-09T00:41:27.732Z,5.96
2022-11-09T00:43:56.728Z,5.94
2022-11-09T00:46:25.685Z,5.92
2022-11-09T00:48:56.169Z,5.92
2022-11-09T00:51:24.387Z,5.91
2022-11-09T00:53:55.951Z,5.91
2022-11-09T00:56:27.112Z,5.89
2022-11-09T00:58:56.275Z,5.88
2022-11-09T01:01:28.363Z,5.84
2022-11-09T01:03:57.656Z,5.83
2022-11-09T01:06:27.539Z,5.82
2022-11-09T01:08:55.944Z,5.82
2022-11-09T01:11:24.988Z,5.82
2022-11-09T01:13:54.579Z,5.81
2022-11-09T01:16:24.300Z,5.78
2022-11-09T01:18:54.657Z,5.74
2022-11-09T01:21:26.701Z,5.76
2022-11-09T01:23:56.054Z,5.76
2022-11-09T01:26:24.133Z,5.73
2022-11-09T01:28:52.763Z,5.68
2022-11-09T01:31:22.031Z,5.63
2022-11-09T01:33:50.392Z,5.60
2022-11-09T01:36:23.603Z,5.58
2022-11-09T01:38:51.579Z,5.57
2022-11-09T01:41:23.457Z,5.57
2022-11-09T01:44:18.047Z,5.54
2022-11-09T01:46:49.189Z,5.53
2022-11-09T01:49:41.073Z,5.54
2022-11-09T01:52:45.151Z,5.52
2022-11-09T01:55:21.507Z,5.50
2022-11-09T01:58:02.481Z,5.52
2022-11-09T02:00:37.775Z,5.53
2022-11-09T02:03:28.984Z,5.51
2022-11-09T02:05:58.895Z,5.55
2022-11-09T02:08:27.442Z,5.57
2022-11-09T02:11:08.974Z,5.60
2022-11-09T02:13:40.872Z,5.62
2022-11-09T02:16:13.096Z,5.64
2022-11-09T02:18:49.701Z,5.65
2022-11-09T02:21:19.662Z,5.74
2022-11-09T02:23:49.341Z,5.78
2022-11-09T02:26:43.881Z,5.78
2022-11-09T02:29:17.432Z,5.82
2022-11-09T02:31:52.448Z,5.86
2022-11-09T02:34:23.118Z,5.89
2022-11-09T02:36:51.258Z,5.92
2022-11-09T02:39:25.948Z,5.95
2022-11-09T02:42:02.761Z,5.99
2022-11-09T02:44:40.958Z,6.04
2022-11-09T02:47:09.819Z,6.08
2022-11-09T02:49:37.888Z,6.11
2022-11-09T02:52:06.062Z,6.17
2022-11-09T02:54:34.345Z,6.20
2022-11-09T02:57:02.614Z,6.24
2022-11-09T02:59:31.094Z,6.25
2022-11-09T03:01:59.779Z,6.25
2022-11-09T03:04:29.900Z,6.25
2022-11-09T03:06:59.338Z,6.27
2022-11-09T03:09:27.577Z,6.29
2022-11-09T03:11:58.001Z,6.29
2022-11-09T03:14:28.267Z,6.29
2022-11-09T03:16:57.891Z,6.31
2022-11-09T03:19:26.213Z,6.30
2022-11-09T03:21:54.341Z,6.30
2022-11-09T03:24:24.427Z,6.30
2022-11-09T03:26:53.700Z,6.32
2022-11-09T03:29:22.177Z,6.31
2022-11-09T03:31:50.153Z,6.34
2022-11-09T03:34:18.218Z,6.36
2022-11-09T03:36:46.288Z,6.33
2022-11-09T03:39:14.363Z,6.34
2022-11-09T03:41:42.641Z,6.36
2022-11-09T03:44:10.708Z,6.34
2022-11-09T03:46:38.779Z,6.32
2022-11-09T03:49:06.716Z,6.33
2022-11-09T03:51:34.762Z,6.31
2022-11-09T03:54:02.994Z,6.30
2022-11-09T03:56:31.267Z,6.29
2022-11-09T03:58:59.235Z,6.29
2022-11-09T04:01:27.249Z,6.29
2022-11-09T04:03:55.258Z,6.30
2022-11-09T04:06:23.369Z,6.29
2022-11-09T04:08:51.839Z,6.27
2022-11-09T04:11:20.410Z,6.25
2022-11-09T04:13:48.565Z,6.23
2022-11-09T04:16:16.622Z,6.17
2022-11-09T04:18:44.484Z,6.15
2022-11-09T04:21:12.590Z,6.15
2022-11-09T04:23:40.869Z,6.13
2022-11-09T04:26:10.660Z,6.12
2022-11-09T04:28:38.647Z,6.14
2022-11-09T04:31:06.823Z,6.16
2022-11-09T04:33:34.874Z,6.21
2022-11-09T04:36:05.137Z,6.22
2022-11-09T04:38:33.361Z,6.22
2022-11-09T04:41:02.762Z,6.22
2022-11-09T04:43:30.799Z,6.24
2022-11-09T04:46:03.265Z,6.25
2022-11-09T04:48:33.049Z,6.25
2022-11-09T04:51:06.793Z,6.25
2022-11-09T04:53:35.571Z,6.27
2022-11-09T04:56:05.484Z,6.27
2022-11-09T04:58:34.177Z,6.28
2022-11-09T05:01:10.216Z,6.28
2022-11-09T05:03:39.073Z,6.25
2022-11-09T05:06:26.959Z,6.25
2022-11-09T05:08:55.630Z,6.23
2022-11-09T05:11:24.037Z,6.22
2022-11-09T05:13:52.404Z,6.21
2022-11-09T05:16:21.132Z,6.16
2022-11-09T05:18:49.809Z,6.15
2022-11-09T05:21:18.865Z,6.14
2022-11-09T05:23:59.051Z,6.11
2022-11-09T05:26:31.457Z,6.06
2022-11-09T05:29:01.116Z,6.03
2022-11-09T05:31:30.139Z,6.01
2022-11-09T05:33:59.601Z,5.98
2022-11-09T05:36:29.410Z,5.96
2022-11-09T05:38:58.670Z,5.94
2022-11-09T05:41:32.524Z,5.94
2022-11-09T05:44:00.651Z,5.93
2022-11-09T05:46:29.337Z,5.90
2022-11-09T05:48:57.498Z,5.88
2022-11-09T05:51:25.887Z,5.88
2022-11-09T05:53:53.967Z,5.94
2022-11-09T05:56:22.018Z,5.98
2022-11-09T05:58:49.973Z,6.02
2022-11-09T06:01:21.511Z,6.08
2022-11-09T06:03:49.454Z,6.09
2022-11-09T06:06:17.960Z,6.13
2022-11-09T06:08:45.999Z,6.17
2022-11-09T06:11:18.475Z,6.23
2022-11-09T06:13:52.491Z,6.25
2022-11-09T06:16:21.035Z,6.29
2022-11-09T06:18:51.184Z,6.32
2022-11-09T06:21:23.472Z,6.32
2022-11-09T06:23:51.467Z,6.35
2022-11-09T06:26:19.475Z,6.39
2022-11-09T06:28:47.483Z,6.39
2022-11-09T06:31:17.074Z,6.41
2022-11-09T06:33:45.140Z,6.43
2022-11-09T06:36:13.802Z,6.47
2022-11-09T06:38:42.380Z,6.52
2022-11-09T06:41:11.097Z,6.57
2022-11-09T06:43:39.110Z,6.63
2022-11-09T06:46:07.536Z,6.66
2022-11-09T06:48:35.581Z,6.70
2022-11-09T06:51:05.425Z,6.74
2022-11-09T06:53:35.165Z,6.76
2022-11-09T06:56:04.949Z,6.83
2022-11-09T06:58:33.292Z,6.90
2022-11-09T07:01:09.947Z,6.95
2022-11-09T07:03:39.618Z,7.01
2022-11-09T07:06:10.099Z,7.09
2022-11-09T07:08:38.575Z,7.15
2022-11-09T07:11:09.143Z,7.21
2022-11-09T07:13:37.193Z,7.29
2022-11-09T07:16:08.569Z,7.35
2022-11-09T07:18:36.472Z,7.41
2022-11-09T07:21:08.877Z,7.48
2022-11-09T07:23:42.129Z,7.53
2022-11-09T07:26:10.230Z,7.57
2022-11-09T07:28:38.713Z,7.62
2022-11-09T07:31:07.315Z,7.67
2022-11-09T07:33:36.393Z,7.73
2022-11-09T07:36:05.895Z,7.76
2022-11-09T07:38:35.302Z,7.81
2022-11-09T07:41:03.270Z,7.84
2022-11-09T07:43:31.336Z,7.88
2022-11-09T07:46:04.196Z,7.94
2022-11-09T07:48:32.191Z,8.02
2022-11-09T07:51:03.424Z,8.07
2022-11-09T07:53:31.607Z,8.13
2022-11-09T07:56:01.627Z,8.20
2022-11-09T07:58:29.694Z,8.27
2022-11-09T08:00:59.381Z,8.33
2022-11-09T08:03:27.667Z,8.40
2022-11-09T08:05:57.922Z,8.47
2022-11-09T08:08:25.856Z,8.52
2022-11-09T08:10:56.246Z,8.59
2022-11-09T08:13:24.685Z,8.66
2022-11-09T08:15:52.647Z,8.73
2022-11-09T08:18:22.724Z,8.79
2022-11-09T08:20:51.344Z,8.87
2022-11-09T08:23:21.135Z,8.95
2022-11-09T08:25:51.170Z,9.04
2022-11-09T08:28:19.674Z,9.11
2022-11-09T08:30:56.017Z,9.19
2022-11-09T08:33:23.984Z,9.27
2022-11-09T08:35:53.317Z,9.35
2022-11-09T08:38:22.567Z,9.44
2022-11-09T08:40:50.703Z,9.52
2022-11-09T08:43:18.581Z,9.59
2022-11-09T08:45:47.601Z,9.67
2022-11-09T08:48:15.477Z,9.76
2022-11-09T08:50:43.348Z,9.84
2022-11-09T08:53:12.049Z,9.94
2022-11-09T08:55:40.003Z,10.03
2022-11-09T08:58:07.841Z,10.13
2022-11-09T09:00:35.736Z,10.25
2022-11-09T09:03:08.418Z,10.34
2022-11-09T09:05:36.849Z,10.44
2022-11-09T09:08:06.425Z,10.51
2022-11-09T09:10:37.909Z,10.57
2022-11-09T09:13:05.924Z,10.65
2022-11-09T09:15:33.751Z,10.72
2022-11-09T09:18:03.598Z,10.78
2022-11-09T09:20:32.795Z,10.83
2022-11-09T09:23:01.163Z,10.88
2022-11-09T09:25:28.990Z,10.93
2022-11-09T09:27:56.909Z,10.99
2022-11-09T09:30:25.400Z,11.05
2022-11-09T09:32:58.174Z,11.09
2022-11-09T09:35:27.776Z,11.13
2022-11-09T09:37:55.553Z,11.17
2022-11-09T09:40:35.032Z,11.21
2022-11-09T09:43:03.661Z,11.27
2022-11-09T09:45:35.828Z,11.34
2022-11-09T09:48:22.466Z,11.41
2022-11-09T09:50:56.276Z,11.45
2022-11-09T09:53:32.345Z,11.51
2022-11-09T09:56:16.952Z,11.55
2022-11-09T09:58:55.993Z,11.63
2022-11-09T10:01:28.261Z,11.70
2022-11-09T10:03:56.699Z,11.80
2022-11-09T10:06:46.649Z,11.89
2022-11-09T10:09:33.329Z,11.94
2022-11-09T10:12:22.699Z,11.98
2022-11-09T10:14:57.890Z,12.05
2022-11-09T10:17:32.013Z,12.12
2022-11-09T10:20:05.667Z,12.18
2022-11-09T10:22:33.418Z,12.26
2022-11-09T10:25:32.092Z,12.32
2022-11-09T10:28:13.585Z,12.39
2022-11-09T10:30:42.374Z,12.45
2022-11-09T10:33:10.341Z,12.51
2022-11-09T10:35:47.614Z,12.58
2022-11-09T10:38:21.681Z,12.63
2022-11-09T10:41:31.769Z,12.67
2022-11-09T10:44:19.769Z,12.73
2022-11-09T10:47:13.990Z,12.79
2022-11-09T10:50:39.631Z,12.83
2022-11-09T10:53:28.829Z,12.88
2022-11-09T10:56:21.838Z,12.92
2022-11-09T10:59:57.153Z,12.91
2022-11-09T11:02:46.462Z,12.91
2022-11-09T11:05:34.618Z,12.90
2022-11-09T11:08:27.277Z,12.90
2022-11-09T11:11:37.893Z,12.97
2022-11-09T11:14:35.409Z,13.01
2022-11-09T11:17:40.996Z,13.09
2022-11-09T11:20:29.986Z,13.18
2022-11-09T11:23:26.275Z,13.23
2022-11-09T11:26:30.800Z,13.32
2022-11-09T11:29:35.625Z,13.39
2022-11-09T11:32:23.672Z,13.43
2022-11-09T11:35:20.934Z,13.48
2022-11-09T11:38:26.370Z,13.52
2022-11-09T11:41:21.074Z,13.57
2022-11-09T11:44:35.694Z,13.60
2022-11-09T11:47:36.639Z,13.61
2022-11-09T11:50:44.779Z,13.62
2022-11-09T11:53:49.283Z,13.65
2022-11-09T11:56:44.569Z,13.69
2022-11-09T11:59:51.011Z,13.68
2022-11-09T12:03:15.915Z,13.67
2022-11-09T12:06:14.685Z,13.64
2022-11-09T12:09:16.813Z,13.63
2022-11-09T12:12:26.167Z,13.65
2022-11-09T12:15:39.516Z,13.66
2022-11-09T12:19:04.592Z,13.68
2022-11-09T12:22:18.172Z,13.68
2022-11-09T12:25:14.018Z,13.67
2022-11-09T12:28:03.571Z,13.67
2022-11-09T12:31:12.834Z,13.68
2022-11-09T12:34:44.320Z,13.69
2022-11-09T12:37:35.706Z,13.70
2022-11-09T12:40:31.466Z,13.71
2022-11-09T12:43:34.726Z,13.70
2022-11-09T12:46:27.834Z,13.68
2022-11-09T12:49:35.865Z,13.68
2022-11-09T12:52:28.125Z,13.67
2022-11-09T12:55:17.639Z,13.68
2022-11-09T12:58:04.819Z,13.69
2022-11-09T13:00:54.918Z,13.74
2022-11-09T13:03:56.421Z,13.75
2022-11-09T13:07:09.057Z,13.74
2022-11-09T13:09:57.924Z,13.75
2022-11-09T13:12:48.551Z,13.76
2022-11-09T13:15:36.425Z,13.76
2022-11-09T13:18:30.448Z,13.76
2022-11-09T13:21:23.591Z,13.74
2022-11-09T13:24:34.282Z,13.75
2022-11-09T13:27:32.950Z,13.76
2022-11-09T13:30:25.309Z,13.77
2022-11-09T13:33:15.143Z,13.78
2022-11-09T13:36:08.007Z,13.80
2022-11-09T13:39:31.761Z,13.81
2022-11-09T13:42:35.148Z,13.79
2022-11-09T13:45:24.496Z,13.80
2022-11-09T13:48:39.182Z,13.82
2022-11-09T13:51:46.471Z,13.83
2022-11-09T13:54:37.735Z,13.84
2022-11-09T13:57:25.834Z,13.84
2022-11-09T14:00:30.911Z,13.82
2022-11-09T14:03:24.419Z,13.80
2022-11-09T14:06:13.720Z,13.77
2022-11-09T14:09:02.215Z,13.72
2022-11-09T14:12:10.393Z,13.66
2022-11-09T14:15:19.807Z,13.60
2022-11-09T14:18:10.732Z,13.54
2022-11-09T14:21:25.144Z,13.49
2022-11-09T14:24:22.276Z,13.44
2022-11-09T14:27:09.027Z,13.40
2022-11-09T14:29:59.292Z,13.39
2022-11-09T14:32:51.293Z,13.35
2022-11-09T14:35:39.325Z,13.30
2022-11-09T14:38:25.842Z,13.24
2022-11-09T14:41:25.628Z,13.20
2022-11-09T14:44:35.994Z,13.14
2022-11-09T14:47:29.993Z,13.09
2022-11-09T14:50:37.500Z,13.04
2022-11-09T14:53:33.367Z,12.98
2022-11-09T14:56:21.942Z,12.91
2022-11-09T14:59:14.335Z,12.84
2022-11-09T15:02:10.625Z,12.78
2022-11-09T15:05:02.965Z,12.71
2022-11-09T15:07:50.005Z,12.65
2022-11-09T15:10:38.083Z,12.59
2022-11-09T15:13:37.695Z,12.55
2022-11-09T15:16:30.973Z,12.49
2022-11-09T15:19:58.143Z,12.43
2022-11-09T15:22:57.998Z,12.37
2022-11-09T15:25:44.839Z,12.31
2022-11-09T15:28:32.371Z,12.27
2022-11-09T15:31:19.605Z,12.23
2022-11-09T15:34:25.204Z,12.17
2022-11-09T15:37:52.675Z,12.10
2022-11-09T15:40:39.206Z,12.03
2022-11-09T15:43:28.026Z,11.98
2022-11-09T15:46:18.491Z,11.93
2022-11-09T15:49:25.746Z,11.90
2022-11-09T15:52:12.863Z,11.84
2022-11-09T15:54:59.623Z,11.80
2022-11-09T15:57:46.327Z,11.75
2022-11-09T16:00:33.058Z,11.70
2022-11-09T16:03:20.208Z,11.65
2022-11-09T16:06:10.509Z,11.59
2022-11-09T16:08:57.208Z,11.53
2022-11-09T16:11:43.711Z,11.48
2022-11-09T16:14:32.438Z,11.43
2022-11-09T16:17:19.037Z,11.36
2022-11-09T16:20:06.799Z,11.31
2022-11-09T16:22:53.061Z,11.25
2022-11-09T16:25:40.104Z,11.20
2022-11-09T16:28:26.806Z,11.16
2022-11-09T16:31:13.675Z,11.10
2022-11-09T16:33:59.913Z,11.06
2022-11-09T16:36:51.061Z,11.00
2022-11-09T16:39:41.034Z,10.96
2022-11-09T16:42:27.725Z,10.93
2022-11-09T16:45:16.361Z,10.89
2022-11-09T16:48:10.426Z,10.87
2022-11-09T16:50:56.987Z,10.84
2022-11-09T16:53:43.975Z,10.82
2022-11-09T16:56:33.749Z,10.75
2022-11-09T16:59:20.478Z,10.74
2022-11-09T17:02:07.278Z,10.69
2022-11-09T17:04:57.426Z,10.65
2022-11-09T17:07:47.185Z,10.60
2022-11-09T17:10:33.559Z,10.57
2022-11-09T17:13:20.058Z,10.53
2022-11-09T17:16:12.858Z,10.49
2022-11-09T17:19:00.116Z,10.47
2022-11-09T17:21:47.085Z,10.41
2022-11-09T17:24:33.741Z,10.35
2022-11-09T17:27:20.328Z,10.29
2022-11-09T17:30:07.707Z,10.26
2022-11-09T17:32:54.688Z,10.21
2022-11-09T17:35:40.947Z,10.18
2022-11-09T17:38:31.475Z,10.14
2022-11-09T17:41:20.334Z,10.06
2022-11-09T17:44:06.630Z,10.03
2022-11-09T17:46:53.135Z,10.00
2022-11-09T17:49:39.881Z,9.97
2022-11-09T17:52:26.467Z,9.90
2022-11-09T17:55:13.475Z,9.84
2022-11-09T17:57:59.857Z,9.82
2022-11-09T18:00:46.549Z,9.81
2022-11-09T18:03:34.677Z,9.79
2022-11-09T18:06:23.847Z,9.77
2022-11-09T18:09:42.502Z,9.71
2022-11-09T18:12:19.896Z,9.65
2022-11-09T18:15:06.571Z,9.59
2022-11-09T18:17:53.352Z,9.55
2022-11-09T18:20:40.492Z,9.53
2022-11-09T18:23:26.865Z,9.50
2022-11-09T18:26:13.660Z,9.47
2022-11-09T18:29:00.571Z,9.42
2022-11-09T18:31:46.813Z,9.41
2022-11-09T18:34:33.805Z,9.38
2022-11-09T18:37:20.574Z,9.35
2022-11-09T18:40:07.939Z,9.34
2022-11-09T18:42:54.170Z,9.34
2022-11-09T18:45:40.896Z,9.31
2022-11-09T18:48:29.627Z,9.30
2022-11-09T18:51:16.181Z,9.27
2022-11-09T18:54:02.826Z,9.19
2022-11-09T18:56:49.399Z,9.13
2022-11-09T18:59:40.105Z,9.10
2022-11-09T19:02:26.790Z,9.08
2022-11-09T19:05:13.883Z,9.07
2022-11-09T19:08:00.243Z,9.05
2022-11-09T19:10:46.601Z,9.04
2022-11-09T19:13:33.260Z,9.00
2022-11-09T19:16:19.982Z,9.02
2022-11-09T19:19:07.153Z,9.04
2022-11-09T19:21:55.893Z,9.05
2022-11-09T19:24:42.713Z,9.06
2022-11-09T19:27:29.240Z,9.08
2022-11-09T19:30:15.961Z,9.09
2022-11-09T19:33:03.628Z,9.11
2022-11-09T19:36:23.144Z,9.12
2022-11-09T19:39:01.233Z,9.15
2022-11-09T19:41:48.139Z,9.18
2022-11-09T19:44:34.586Z,9.21
2022-11-09T19:47:20.910Z,9.23
2022-11-09T19:50:08.068Z,9.26
2022-11-09T19:52:55.556Z,9.28
2022-11-09T19:55:42.473Z,9.29
2022-11-09T19:58:28.855Z,9.29
2022-11-09T20:01:16.697Z,9.29
2022-11-09T20:04:07.677Z,9.28
2022-11-09T20:06:56.621Z,9.28
2022-11-09T20:09:43.223Z,9.30
2022-11-09T20:12:48.490Z,9.29
2022-11-09T20:15:34.732Z,9.28
2022-11-09T20:18:23.777Z,9.28
2022-11-09T20:21:11.049Z,9.26
2022-11-09T20:23:57.739Z,9.24
2022-11-09T20:26:44.499Z,9.20
2022-11-09T20:29:30.759Z,9.18
2022-11-09T20:32:21.482Z,9.19
2022-11-09T20:35:09.547Z,9.19
2022-11-09T20:37:56.146Z,9.16
2022-11-09T20:40:42.341Z,9.13
2022-11-09T20:43:29.823Z,9.12
2022-11-09T20:46:19.832Z,9.10
2022-11-09T20:49:06.260Z,9.07
2022-11-09T20:51:52.734Z,9.08
2022-11-09T20:54:39.112Z,9.08
2022-11-09T20:57:25.885Z,9.08
2022-11-09T21:00:12.963Z,9.09
2022-11-09T21:02:59.599Z,9.07
2022-11-09T21:05:50.958Z,9.03
2022-11-09T21:08:38.954Z,9.00
2022-11-09T21:11:28.800Z,8.95
2022-11-09T21:14:15.327Z,8.92
2022-11-09T21:17:01.540Z,8.88
2022-11-09T21:19:50.522Z,8.83
2022-11-09T21:22:55.120Z,8.82
2022-11-09T21:26:02.531Z,8.81
2022-11-09T21:29:07.599Z,8.82
2022-11-09T21:31:54.247Z,8.83
2022-11-09T21:34:41.000Z,8.83
2022-11-09T21:37:27.752Z,8.85
2022-11-09T21:40:14.251Z,8.86
2022-11-09T21:43:00.869Z,8.86
2022-11-09T21:45:50.334Z,8.88
2022-11-09T21:48:36.667Z,8.93
2022-11-09T21:51:23.726Z,8.95
2022-11-09T21:54:10.626Z,8.98
2022-11-09T21:56:57.711Z,9.00
2022-11-09T21:59:44.046Z,9.02
2022-11-09T22:02:30.651Z,9.04
2022-11-09T22:05:21.855Z,9.05
2022-11-09T22:08:10.127Z,9.09
2022-11-09T22:11:08.407Z,9.13
2022-11-09T22:14:13.507Z,9.15
2022-11-09T22:17:00.081Z,9.18
2022-11-09T22:20:05.360Z,9.20
2022-11-09T22:22:51.858Z,9.22
2022-11-09T22:25:37.970Z,9.23
2022-11-09T22:28:24.328Z,9.26
2022-11-09T22:31:11.088Z,9.30
2022-11-09T22:33:57.538Z,9.30
2022-11-09T22:36:44.177Z,9.31
2022-11-09T22:39:30.839Z,9.32
2022-11-09T22:42:17.312Z,9.34
2022-11-09T22:45:03.981Z,9.37
2022-11-09T22:47:50.565Z,9.38
2022-11-09T22:50:37.807Z,9.38
2022-11-09T22:53:24.106Z,9.41
2022-11-09T22:56:11.239Z,9.41
2022-11-09T22:58:57.709Z,9.42
2022-11-09T23:01:44.442Z,9.42
2022-11-09T23:04:30.975Z,9.41
2022-11-09T23:07:17.397Z,9.43
2022-11-09T23:10:04.753Z,9.45
2022-11-09T23:12:51.077Z,9.47
2022-11-09T23:15:37.505Z,9.48
2022-11-09T23:18:44.247Z,9.48
2022-11-09T23:21:36.653Z,9.49
2022-11-09T23:24:42.077Z,9.50
2022-11-09T23:27:28.437Z,9.47
2022-11-09T23:30:14.793Z,9.46
2022-11-09T23:33:01.926Z,9.46
2022-11-09T23:35:48.235Z,9.43
2022-11-09T23:38:36.298Z,9.42
2022-11-09T23:41:22.508Z,9.42
2022-11-09T23:44:08.864Z,9.40
2022-11-09T23:46:55.454Z,9.39
2022-11-09T23:49:41.965Z,9.38
2022-11-09T23:52:28.474Z,9.37
2022-11-09T23:55:16.456Z,9.35
2022-11-09T23:58:04.352Z,9.33
